Time;durP1;ratioP1;P1;durP2;ratioP2;P2;SDS_P1;SDS_P2;PMS_P1;PMS_P2;Temp;Humidity;BMP_temperature;BMP_pressure;BME280_temperature;BME280_humidity;BME280_pressure;Samples;Min_cycle;Max_cycle;Signal;HPM_P1;HPM_P2
2023/04/25 00:00:58;;;;;;;7.32;3.80;;;;;;;17.29;64.24;98106.09;4966724;28;20129;-76
2023/04/25 00:03:24;;;;;;;5.18;3.35;;;;;;;17.31;64.29;98098.81;4958444;28;20411;-76
2023/04/25 00:05:51;;;;;;;6.10;3.30;;;;;;;17.31;64.27;98098.81;4975246;28;20034;-76
2023/04/25 00:08:17;;;;;;;4.72;3.65;;;;;;;17.27;64.29;98090.44;4974994;28;20049;-75
2023/04/25 00:10:42;;;;;;;5.80;3.40;;;;;;;17.27;64.13;98073.81;4991679;28;20030;-76
2023/04/25 00:13:08;;;;;;;6.72;4.10;;;;;;;17.29;64.12;98067.34;4974565;28;20504;-76
2023/04/25 00:15:35;;;;;;;8.20;3.67;;;;;;;17.28;64.30;98056.97;4958516;28;20030;-75
2023/04/25 00:18:01;;;;;;;7.30;3.70;;;;;;;17.24;64.46;98047.78;4991020;28;20041;-76
2023/04/25 00:20:26;;;;;;;9.32;3.83;;;;;;;17.28;64.45;98049.03;4974799;28;20277;-76
2023/04/25 00:22:53;;;;;;;7.82;3.55;;;;;;;17.26;64.34;98033.41;4990742;28;20034;-76
2023/04/25 00:25:18;;;;;;;4.63;3.17;;;;;;;17.26;63.99;98036.03;4977734;28;20038;-76
2023/04/25 00:27:44;;;;;;;4.40;3.38;;;;;;;17.21;64.33;98035.75;4998565;28;20669;-76
2023/04/25 00:30:10;;;;;;;6.80;3.90;;;;;;;17.24;64.25;98045.13;5015297;28;20025;-76
2023/04/25 00:32:36;;;;;;;6.55;3.70;;;;;;;17.19;64.08;98050.94;4981306;28;20022;-76
2023/04/25 00:35:01;;;;;;;4.13;3.60;;;;;;;17.21;64.15;98046.31;4997154;28;20041;-76
2023/04/25 00:37:27;;;;;;;6.82;3.85;;;;;;;17.18;64.17;98046.66;5014059;28;20029;-76
2023/04/25 00:39:54;;;;;;;4.15;3.75;;;;;;;17.22;64.19;98052.38;4980959;28;20037;-76
2023/04/25 00:42:20;;;;;;;5.60;3.80;;;;;;;17.22;64.34;98050.59;4997331;28;20110;-76
2023/04/25 00:44:45;;;;;;;8.38;3.60;;;;;;;17.20;64.33;98057.84;4981185;28;20050;-76
2023/04/25 00:47:11;;;;;;;4.88;3.95;;;;;;;17.21;64.56;98053.41;4996466;28;20563;-76
2023/04/25 00:49:36;;;;;;;5.85;4.00;;;;;;;17.18;64.30;98047.47;4996436;28;20164;-76
2023/04/25 00:52:02;;;;;;;5.32;3.90;;;;;;;17.16;64.80;98056.56;4997397;28;20029;-76
2023/04/25 00:54:27;;;;;;;5.28;4.07;;;;;;;17.12;64.72;98048.16;4979879;28;20116;-76
2023/04/25 00:56:53;;;;;;;6.22;4.07;;;;;;;17.10;64.88;98044.09;4981019;28;20037;-76
2023/04/25 00:59:20;;;;;;;6.32;4.30;;;;;;;17.09;64.92;98043.25;4996403;28;20037;-76
2023/04/25 01:01:45;;;;;;;8.95;4.53;;;;;;;17.06;64.90;98046.22;4997433;28;20030;-75
2023/04/25 01:04:11;;;;;;;4.35;3.65;;;;;;;17.05;64.91;98043.78;4997792;28;20437;-75
2023/04/25 01:06:36;;;;;;;5.85;4.20;;;;;;;17.01;65.06;98038.03;4995711;28;20048;-76
2023/04/25 01:09:02;;;;;;;5.43;4.10;;;;;;;16.99;65.01;98040.03;4997361;28;20115;-76
2023/04/25 01:11:28;;;;;;;9.05;4.38;;;;;;;16.94;65.09;98039.75;4980277;28;20076;-75
2023/04/25 01:13:53;;;;;;;9.13;4.40;;;;;;;16.91;65.06;98040.91;4996707;28;20073;-75
2023/04/25 01:16:19;;;;;;;6.10;4.40;;;;;;;16.88;65.04;98035.16;4979836;28;20026;-76
2023/04/25 01:18:45;;;;;;;5.55;4.00;;;;;;;16.82;65.09;98028.72;4997239;28;20409;-76
2023/04/25 01:21:11;;;;;;;6.63;4.45;;;;;;;16.80;65.09;98025.47;4996157;28;20030;-76
2023/04/25 01:23:38;;;;;;;7.68;4.55;;;;;;;16.77;64.95;98031.06;4996495;28;20038;-76
2023/04/25 01:26:03;;;;;;;6.50;3.55;;;;;;;16.75;65.08;98025.97;4980145;28;20049;-76
2023/04/25 01:28:29;;;;;;;8.52;4.38;;;;;;;16.71;65.12;98026.50;4980518;28;20034;-76
2023/04/25 01:30:55;;;;;;;6.68;4.20;;;;;;;16.69;64.91;98025.84;4995998;28;20029;-77
2023/04/25 01:33:21;;;;;;;4.95;3.97;;;;;;;16.66;65.13;98023.56;4996776;28;20036;-77
2023/04/25 01:35:47;;;;;;;5.70;4.28;;;;;;;16.60;65.29;98014.53;5011793;28;20030;-77
2023/04/25 01:38:13;;;;;;;6.45;4.05;;;;;;;16.59;65.13;98012.91;4995492;28;20053;-78
2023/04/25 01:40:38;;;;;;;6.93;4.60;;;;;;;16.54;65.04;98005.53;4995919;28;20096;-77
2023/04/25 01:43:04;;;;;;;4.90;4.00;;;;;;;16.51;65.26;98005.03;4979912;28;20117;-77
2023/04/25 01:45:29;;;;;;;4.90;3.88;;;;;;;16.50;65.15;98000.78;4996218;28;20037;-77
2023/04/25 01:47:59;;;;;;;5.97;4.13;;;;;;;16.46;65.04;97993.22;4979418;28;20038;-77
2023/04/25 01:50:24;;;;;;;7.20;4.30;;;;;;;16.45;65.18;97999.47;4979966;28;20476;-77
2023/04/25 01:52:50;;;;;;;5.28;4.43;;;;;;;16.41;65.31;97999.97;4996133;28;20033;-77
2023/04/25 01:55:15;;;;;;;6.85;4.38;;;;;;;16.38;65.16;97992.41;4996689;28;20030;-77
2023/04/25 01:57:41;;;;;;;5.68;4.35;;;;;;;16.32;65.10;97982.56;4979922;28;20084;-77
2023/04/25 02:00:08;;;;;;;5.57;4.20;;;;;;;16.30;65.13;97982.72;5013333;28;20026;-77
2023/04/25 02:02:33;;;;;;;7.85;4.50;;;;;;;16.31;64.83;97992.28;4995393;28;20042;-77
2023/04/25 02:04:59;;;;;;;5.63;4.50;;;;;;;16.28;65.17;97988.19;4996109;28;20052;-77
2023/04/25 02:07:26;;;;;;;6.38;4.38;;;;;;;16.23;65.11;97979.16;4995738;28;21088;-77
2023/04/25 02:09:51;;;;;;;6.75;4.93;;;;;;;16.23;64.98;97990.50;4978368;28;20042;-77
2023/04/25 02:12:16;;;;;;;6.22;4.63;;;;;;;16.22;65.00;97994.13;4980204;28;20038;-77
2023/04/25 02:14:42;;;;;;;6.07;4.60;;;;;;;16.16;65.16;97980.81;4995314;28;20086;-76
2023/04/25 02:17:07;;;;;;;6.78;4.60;;;;;;;16.17;65.02;97993.81;4995873;28;20034;-77
2023/04/25 02:19:33;;;;;;;7.40;4.57;;;;;;;16.14;64.96;97994.16;5011904;28;20068;-76
2023/04/25 02:21:59;;;;;;;10.48;4.68;;;;;;;16.13;64.90;97996.97;4996288;28;20460;-77
2023/04/25 02:24:24;;;;;;;6.93;5.00;;;;;;;16.12;65.14;97990.09;4995233;28;20029;-77
2023/04/25 02:26:50;;;;;;;5.78;4.82;;;;;;;16.09;65.12;97991.22;5012100;28;20394;-76
2023/04/25 02:29:16;;;;;;;7.60;4.85;;;;;;;16.06;65.21;97986.31;4995529;28;20516;-76
2023/04/25 02:31:41;;;;;;;7.80;4.85;;;;;;;16.06;65.28;97988.94;4995675;28;20092;-77
2023/04/25 02:34:07;;;;;;;5.75;4.68;;;;;;;16.05;65.41;97992.53;4980547;28;20125;-76
2023/04/25 02:36:34;;;;;;;8.32;5.22;;;;;;;16.08;65.17;97989.56;5014098;28;20026;-77
2023/04/25 02:39:00;;;;;;;6.72;5.10;;;;;;;16.04;65.01;97983.84;4998528;28;20030;-77
2023/04/25 02:41:26;;;;;;;7.20;4.95;;;;;;;16.07;65.22;97990.59;4980920;28;20060;-77
2023/04/25 02:43:51;;;;;;;6.60;5.10;;;;;;;16.05;65.07;97972.31;4994873;28;20481;-77
2023/04/25 02:46:17;;;;;;;7.82;5.30;;;;;;;16.01;65.19;97971.03;5010986;28;20038;-77
2023/04/25 02:48:43;;;;;;;6.90;5.43;;;;;;;16.06;65.44;97992.38;4995109;28;20034;-77
2023/04/25 02:51:08;;;;;;;7.43;5.10;;;;;;;16.08;65.33;97989.56;4977226;28;20130;-78
2023/04/25 02:53:34;;;;;;;6.93;5.47;;;;;;;16.07;65.32;97990.59;5011104;28;20109;-77
2023/04/25 02:56:00;;;;;;;8.93;5.53;;;;;;;16.04;65.35;97983.84;4994484;28;20034;-76
2023/04/25 02:58:25;;;;;;;8.07;5.60;;;;;;;16.07;65.18;97986.13;4995336;28;20025;-77
2023/04/25 03:00:51;;;;;;;8.00;5.55;;;;;;;16.07;65.23;97993.22;5010924;28;20041;-76
2023/04/25 03:03:21;;;;;;;9.48;5.28;;;;;;;16.07;65.35;97998.50;5010745;28;20026;-76
2023/04/25 03:05:50;;;;;;;7.15;5.80;;;;;;;16.05;65.45;97996.03;4979059;28;20037;-77
2023/04/25 03:08:16;;;;;;;8.05;5.28;;;;;;;16.06;65.17;98010.81;4976502;28;20136;-76
2023/04/25 03:10:42;;;;;;;7.55;5.50;;;;;;;16.04;65.41;98012.81;4977775;28;20026;-76
2023/04/25 03:13:07;;;;;;;8.20;5.68;;;;;;;16.05;65.35;98014.44;4992927;28;20052;-76
2023/04/25 03:15:33;;;;;;;8.77;5.72;;;;;;;16.05;65.22;98014.44;4994564;28;20504;-76
2023/04/25 03:17:59;;;;;;;8.88;6.00;;;;;;;16.06;65.19;98018.72;4978451;28;20038;-76
2023/04/25 03:20:24;;;;;;;7.13;5.72;;;;;;;16.04;65.24;98012.81;4979020;28;20061;-76
2023/04/25 03:22:50;;;;;;;7.80;5.90;;;;;;;16.05;65.14;98013.59;4994578;28;20479;-76
2023/04/25 03:25:15;;;;;;;7.10;5.78;;;;;;;16.05;65.16;98003.91;4978189;28;20489;-76
2023/04/25 03:27:41;;;;;;;7.68;6.13;;;;;;;16.04;65.20;98004.91;4978525;28;20049;-78
2023/04/25 03:30:07;;;;;;;8.85;6.18;;;;;;;16.05;65.15;98008.34;4978309;28;20540;-78
2023/04/25 03:32:33;;;;;;;7.80;6.10;;;;;;;16.09;65.08;98014.91;5012236;28;20046;-76
2023/04/25 03:34:59;;;;;;;10.35;6.13;;;;;;;16.14;64.92;98019.69;4993705;28;20038;-77
2023/04/25 03:37:24;;;;;;;8.18;6.10;;;;;;;16.34;64.31;98013.00;5010432;28;20421;-77
2023/04/25 03:39:50;;;;;;;8.07;6.18;;;;;;;16.46;63.89;98008.16;5012275;28;20080;-75
2023/04/25 03:42:16;;;;;;;7.88;5.68;;;;;;;16.39;64.16;98004.59;4994795;28;20038;-74
2023/04/25 03:44:41;;;;;;;6.90;5.55;;;;;;;16.32;64.29;97993.94;4994860;28;20030;-77
2023/04/25 03:47:07;;;;;;;10.70;6.43;;;;;;;16.32;64.33;98004.47;4978518;28;20040;-76
2023/04/25 03:49:33;;;;;;;6.38;5.60;;;;;;;16.33;64.22;98002.66;4994042;28;20405;-77
2023/04/25 03:52:00;;;;;;;9.80;5.80;;;;;;;16.27;64.37;97998.88;4994639;28;20080;-77
2023/04/25 03:54:25;;;;;;;10.35;6.43;;;;;;;16.28;64.41;97998.72;5010893;28;20032;-78
2023/04/25 03:56:51;;;;;;;10.23;5.80;;;;;;;16.29;64.32;98002.19;5011052;28;20030;-77
2023/04/25 03:59:16;;;;;;;6.72;5.72;;;;;;;16.27;64.50;98002.34;4980586;28;20132;-79
2023/04/25 04:01:42;;;;;;;6.25;5.40;;;;;;;16.24;64.48;97999.22;4996064;28;20175;-74
2023/04/25 04:04:07;;;;;;;9.13;5.93;;;;;;;16.28;64.48;98006.59;4998388;28;20115;-75
2023/04/25 04:06:33;;;;;;;8.18;6.13;;;;;;;16.27;64.52;98002.34;4998364;28;20053;-75
2023/04/25 04:08:59;;;;;;;6.95;5.80;;;;;;;16.26;64.55;98000.69;4998188;28;20053;-75
2023/04/25 04:11:24;;;;;;;8.13;5.68;;;;;;;16.29;65.99;98007.44;4981904;28;20037;-75
2023/04/25 04:13:50;;;;;;;6.95;5.75;;;;;;;16.35;65.43;98005.94;4981482;28;20048;-77
2023/04/25 04:16:15;;;;;;;12.43;5.95;;;;;;;16.40;66.68;98006.25;5014165;28;20038;-75
2023/04/25 04:18:41;;;;;;;11.05;5.70;;;;;;;16.41;65.93;98008.72;4998242;28;20093;-77
2023/04/25 04:21:06;;;;;;;9.30;5.93;;;;;;;16.42;65.80;98001.63;4982254;28;20125;-75
2023/04/25 04:23:32;;;;;;;10.48;5.40;;;;;;;16.43;65.77;98005.88;4981659;28;20540;-77
2023/04/25 04:25:57;;;;;;;10.35;5.10;;;;;;;16.44;65.54;98007.53;4997831;28;20034;-72
2023/04/25 04:28:23;;;;;;;8.63;5.68;;;;;;;16.44;65.17;98008.34;4997532;28;20037;-74
2023/04/25 04:30:50;;;;;;;9.45;5.45;;;;;;;16.45;65.42;98009.19;4997721;28;20390;-76
2023/04/25 04:33:19;;;;;;;11.95;6.28;;;;;;;16.46;64.92;98006.38;4997799;28;20116;-74
2023/04/25 04:35:44;;;;;;;;;;;;;;;16.49;64.76;97991.22;4998147;28;20030;-74
2023/04/25 04:38:11;;;;;;;8.35;5.63;;;;;;;16.46;64.67;97987.09;4981083;28;20421;-75
2023/04/25 04:40:37;;;;;;;9.50;5.30;;;;;;;16.51;64.77;97992.69;5013806;28;20084;-75
2023/04/25 04:43:02;;;;;;;7.32;5.20;;;;;;;16.52;64.78;97985.59;4980933;28;20054;-75
2023/04/25 04:45:28;;;;;;;6.30;4.95;;;;;;;16.56;64.41;97977.19;4997101;28;20078;-75
2023/04/25 04:47:55;;;;;;;8.90;5.20;;;;;;;16.59;64.26;97983.94;4997006;28;20092;-75
2023/04/25 04:50:20;;;;;;;13.00;5.03;;;;;;;16.62;64.27;97983.56;4997316;28;20034;-75
2023/04/25 04:52:46;;;;;;;8.18;5.28;;;;;;;16.67;64.12;97990.94;4980837;28;20030;-75
2023/04/25 04:55:11;;;;;;;7.25;5.10;;;;;;;16.72;64.09;97988.63;5013400;28;20037;-75
2023/04/25 04:57:38;;;;;;;11.40;4.93;;;;;;;16.73;63.90;97980.53;4997101;28;20026;-75
2023/04/25 05:00:07;;;;;;;6.63;4.85;;;;;;;16.82;63.60;97987.41;4980795;28;20132;-75
2023/04/25 05:02:33;;;;;;;10.93;4.57;;;;;;;16.88;63.54;97980.63;4997045;28;20069;-74
2023/04/25 05:04:58;;;;;;;6.70;4.43;;;;;;;16.92;63.33;97974.00;4997357;28;20069;-75
2023/04/25 05:07:24;;;;;;;8.80;4.30;;;;;;;17.00;63.21;97967.88;4980181;28;20054;-75
2023/04/25 05:09:50;;;;;;;5.43;4.72;;;;;;;17.06;63.02;97958.41;5014403;28;20034;-75
2023/04/25 05:12:15;;;;;;;6.88;4.30;;;;;;;17.13;63.00;97967.25;4980666;28;20038;-75
2023/04/25 05:14:41;;;;;;;7.45;4.97;;;;;;;17.21;62.64;97971.66;4980602;28;20026;-75
2023/04/25 05:17:08;;;;;;;10.38;4.65;;;;;;;17.25;62.55;97959.72;4997214;28;20041;-75
2023/04/25 05:19:34;;;;;;;7.13;4.22;;;;;;;17.31;61.99;97965.09;4997177;28;20034;-78
2023/04/25 05:22:00;;;;;;;8.00;4.60;;;;;;;17.40;62.24;97983.50;4980554;28;20030;-75
2023/04/25 05:24:25;;;;;;;8.10;4.72;;;;;;;17.46;61.81;97982.81;4996133;28;20104;-76
2023/04/25 05:26:51;;;;;;;7.85;4.50;;;;;;;17.50;61.99;97971.69;4980355;28;20115;-76
2023/04/25 05:29:16;;;;;;;7.97;4.78;;;;;;;17.57;62.00;97973.59;4980022;28;20081;-75
2023/04/25 05:31:42;;;;;;;5.72;4.03;;;;;;;17.62;61.75;97976.53;4996647;28;20040;-76
2023/04/25 05:34:07;;;;;;;6.18;4.20;;;;;;;17.67;61.65;97974.16;4996708;28;20493;-76
2023/04/25 05:36:33;;;;;;;7.75;4.40;;;;;;;17.68;61.38;97976.63;4980438;28;20555;-76
2023/04/25 05:38:58;;;;;;;7.32;4.18;;;;;;;17.79;61.09;97988.56;4996645;28;20038;-76
2023/04/25 05:41:24;;;;;;;7.72;4.40;;;;;;;17.83;60.86;97979.25;4980184;28;20022;-75
2023/04/25 05:43:50;;;;;;;8.70;4.47;;;;;;;17.96;60.81;97983.94;4996371;28;20041;-78
2023/04/25 05:46:16;;;;;;;7.40;4.07;;;;;;;18.06;60.64;97976.56;4979540;28;20084;-74
2023/04/25 05:48:42;;;;;;;8.35;4.45;;;;;;;18.18;60.27;97976.09;4996788;28;20084;-76
2023/04/25 05:51:09;;;;;;;7.00;4.07;;;;;;;18.32;59.89;97972.59;4996347;28;20026;-76
2023/04/25 05:53:36;;;;;;;5.10;4.30;;;;;;;18.50;59.50;97976.66;4996444;28;20505;-79
2023/04/25 05:56:01;;;;;;;5.30;3.85;;;;;;;18.78;58.77;97969.63;4996127;28;20124;-77
2023/04/25 05:58:27;;;;;;;7.13;4.55;;;;;;;19.58;57.12;97974.00;4996071;28;20038;-76
2023/04/25 06:00:52;;;;;;;7.38;4.40;;;;;;;19.78;57.61;97982.94;4996075;28;20603;-78
2023/04/25 06:03:18;;;;;;;7.03;4.38;;;;;;;19.79;57.10;97971.31;4996048;28;20037;-78
2023/04/25 06:05:43;;;;;;;6.85;4.20;;;;;;;19.86;56.75;97985.41;4995952;28;20026;-76
2023/04/25 06:08:09;;;;;;;7.35;4.70;;;;;;;19.85;56.73;97965.22;4995334;28;20053;-77
2023/04/25 06:10:36;;;;;;;7.70;4.82;;;;;;;19.88;56.71;97972.78;4979696;28;20145;-77
2023/04/25 06:13:03;;;;;;;7.40;4.38;;;;;;;19.86;56.70;97976.63;5012116;28;20033;-78
2023/04/25 06:15:28;;;;;;;6.93;4.55;;;;;;;19.81;56.64;97981.69;4995835;28;20468;-76
2023/04/25 06:17:54;;;;;;;10.25;4.57;;;;;;;19.71;56.90;97976.72;4995679;28;20057;-77
2023/04/25 06:20:24;;;;;;;6.22;4.40;;;;;;;19.67;56.76;97983.41;4995084;28;20096;-74
2023/04/25 06:22:50;;;;;;;8.85;3.50;;;;;;;19.69;60.23;97990.16;4998837;28;20040;-74
2023/04/25 06:25:16;;;;;;;7.20;3.00;;;;;;;19.79;59.26;97983.72;4996892;28;20072;-83
2023/04/25 06:27:42;;;;;;;12.00;3.30;;;;;;;19.76;59.31;97979.63;4997000;28;20038;-83
2023/04/25 06:30:08;;;;;;;13.65;3.40;;;;;;;19.75;58.71;97977.97;4981072;28;20569;-79
2023/04/25 06:32:34;;;;;;;6.25;3.50;;;;;;;19.75;58.62;97987.75;4980217;28;20049;-84
2023/04/25 06:35:01;;;;;;;28.30;3.38;;;;;;;19.75;58.44;97988.56;4996152;28;20053;-76
2023/04/25 06:37:26;;;;;;;12.38;3.55;;;;;;;19.85;57.40;97988.25;4995536;28;20038;-77
2023/04/25 06:39:53;;;;;;;4.55;3.20;;;;;;;19.96;56.47;97994.84;4979234;28;20025;-79
2023/04/25 06:42:19;;;;;;;16.42;3.78;;;;;;;20.02;56.57;97984.28;4979612;28;20125;-77
2023/04/25 06:44:44;;;;;;;9.60;3.28;;;;;;;20.13;56.37;97990.00;4979999;28;20121;-76
2023/04/25 06:47:10;;;;;;;15.10;3.45;;;;;;;20.19;56.17;97990.06;4980438;28;20042;-75
2023/04/25 06:49:36;;;;;;;7.63;3.28;;;;;;;20.28;55.74;97993.34;4975969;28;20030;-78
2023/04/25 06:52:01;;;;;;;9.52;4.55;;;;;;;20.33;55.17;97990.09;4992334;28;20030;-77
2023/04/25 06:54:29;;;;;;;17.73;4.30;;;;;;;20.39;54.61;97984.00;4975964;28;20030;-77
2023/04/25 06:56:56;;;;;;;7.50;3.80;;;;;;;20.49;54.37;97983.63;4959967;28;20026;-80
2023/04/25 06:59:22;;;;;;;11.13;4.77;;;;;;;20.54;54.75;97989.16;4975292;28;20121;-78
2023/04/25 07:01:48;;;;;;;14.40;4.70;;;;;;;20.60;54.22;97988.34;4992038;28;20787;-77
2023/04/25 07:04:36;;;;;;;16.17;5.57;;;;;;;20.60;54.78;97985.72;4978424;28;20038;-80
2023/04/25 07:07:05;;;;;;;10.13;5.45;;;;;;;20.54;54.68;97982.03;4961589;28;20058;-83
2023/04/25 07:09:33;;;;;;;12.68;5.80;;;;;;;20.51;54.79;97976.28;4982066;28;20039;-86
2023/04/25 07:12:01;;;;;;;10.68;5.88;;;;;;;20.54;54.69;97975.91;4982382;28;20477;-87
2023/04/25 07:14:27;;;;;;;22.77;5.95;;;;;;;20.51;54.75;97974.47;4999331;28;20023;-83
2023/04/25 07:16:53;;;;;;;15.20;6.38;;;;;;;20.48;55.09;97974.88;4963849;28;20105;-85
2023/04/25 07:19:20;;;;;;;13.48;6.47;;;;;;;20.48;55.15;97976.69;4977986;28;20030;-84
2023/04/25 07:21:45;;;;;;;18.27;7.15;;;;;;;20.50;55.23;97978.13;4949006;28;20102;-77
2023/04/25 07:24:11;;;;;;;18.20;7.03;;;;;;;20.54;55.46;97970.59;4977223;28;20041;-81
2023/04/25 07:26:37;;;;;;;16.05;7.80;;;;;;;20.58;55.13;97977.16;4976716;28;20054;-75
2023/04/25 07:29:02;;;;;;;18.70;8.20;;;;;;;20.64;54.88;97970.25;4977170;28;20029;-85
2023/04/25 07:31:28;;;;;;;28.05;8.65;;;;;;;20.65;54.35;97966.56;4977761;28;20042;-74
2023/04/25 07:33:54;;;;;;;15.32;7.65;;;;;;;20.91;52.55;97966.63;4962936;28;20077;-79
2023/04/25 07:36:21;;;;;;;20.23;7.63;;;;;;;21.08;51.88;97961.75;4980121;28;20030;-79
2023/04/25 07:38:46;;;;;;;21.63;7.70;;;;;;;21.15;52.04;97965.22;4983279;28;20042;-83
2023/04/25 07:41:12;;;;;;;19.00;7.63;;;;;;;21.18;51.45;97971.94;4952154;28;20030;-85
2023/04/25 07:43:37;;;;;;;16.58;7.47;;;;;;;21.18;50.99;97950.72;4984334;28;20512;-87
2023/04/25 07:46:03;;;;;;;19.92;7.30;;;;;;;21.25;51.13;97958.69;4974928;28;20030;-84
2023/04/25 07:48:29;;;;;;;19.40;7.20;;;;;;;21.29;50.62;97955.41;4988071;28;20046;-86
2023/04/25 07:50:54;;;;;;;14.48;7.55;;;;;;;21.37;50.86;97948.28;4988116;28;20038;-86
2023/04/25 07:53:21;;;;;;;16.20;7.65;;;;;;;21.39;50.59;97952.34;4989919;28;20073;-85
2023/04/25 07:55:47;;;;;;;15.00;7.78;;;;;;;21.44;50.45;97949.06;4973949;28;20074;-87
2023/04/25 07:58:13;;;;;;;19.13;8.05;;;;;;;21.55;50.68;97945.00;4972446;28;20030;-88
2023/04/25 08:00:39;;;;;;;15.80;7.30;;;;;;;21.66;49.95;97937.22;4981706;28;20033;-89
2023/04/25 08:03:06;;;;;;;16.63;7.35;;;;;;;21.81;50.07;97936.16;4982555;28;20022;-91
2023/04/25 08:05:32;;;;;;;14.82;6.60;;;;;;;22.07;48.25;97940.56;4987532;28;20041;-87
2023/04/25 08:07:59;;;;;;;13.82;5.75;;;;;;;22.28;48.22;97939.47;4981404;28;20137;-78
2023/04/25 08:10:24;;;;;;;15.20;6.43;;;;;;;22.75;47.46;97942.69;4964455;28;20045;-84
2023/04/25 08:12:50;;;;;;;13.77;6.00;;;;;;;23.47;46.00;97936.22;4967230;28;20035;-81
2023/04/25 08:15:17;;;;;;;11.75;5.90;;;;;;;24.23;44.91;97936.81;4982629;28;20041;-85
2023/04/25 08:17:43;;;;;;;10.32;5.32;;;;;;;24.32;44.44;97939.97;4981221;28;20062;-80
2023/04/25 08:20:10;;;;;;;18.23;5.40;;;;;;;24.22;44.26;97937.84;4979972;28;20092;-79
2023/04/25 08:22:36;;;;;;;10.70;5.60;;;;;;;25.15;42.21;97933.03;4998100;28;20022;-76
2023/04/25 08:25:01;;;;;;;9.75;5.35;;;;;;;25.98;41.13;97931.19;4963869;28;20471;-85
2023/04/25 08:27:28;;;;;;;13.95;4.60;;;;;;;26.49;40.63;97934.03;4948429;28;20189;-81
2023/04/25 08:29:53;;;;;;;15.07;4.65;;;;;;;26.99;40.20;97929.00;4980319;28;20042;-83
2023/04/25 08:32:21;;;;;;;12.77;4.50;;;;;;;27.57;39.69;97935.00;4982183;28;20084;-85
2023/04/25 08:34:47;;;;;;;10.13;4.30;;;;;;;28.04;38.85;97926.50;4980817;28;20031;-82
2023/04/25 08:37:12;;;;;;;10.52;4.13;;;;;;;28.48;38.18;97922.94;4996796;28;20137;-78
2023/04/25 08:39:38;;;;;;;8.93;4.13;;;;;;;28.86;37.57;97926.53;4978814;28;20049;-80
2023/04/25 08:42:09;;;;;;;6.43;3.65;;;;;;;29.20;37.68;97923.63;4995182;28;20037;-82
2023/04/25 08:44:35;;;;;;;7.18;3.60;;;;;;;29.52;36.97;97920.84;4962800;28;20038;-82
2023/04/25 08:47:05;;;;;;;10.18;3.78;;;;;;;29.76;36.60;97913.19;4946864;28;20026;-78
2023/04/25 08:49:36;;;;;;;7.05;3.40;;;;;;;29.98;35.58;97914.09;4978334;28;20134;-79
2023/04/25 08:52:05;;;;;;;6.70;3.40;;;;;;;30.16;35.13;97912.81;4961528;28;20091;-83
2023/04/25 08:54:31;;;;;;;7.05;3.28;;;;;;;30.20;34.96;97912.00;4977823;28;20038;-81
2023/04/25 08:56:57;;;;;;;8.73;3.00;;;;;;;30.19;35.54;97913.09;4962172;28;20393;-82
2023/04/25 08:59:23;;;;;;;8.65;3.42;;;;;;;30.24;34.82;97915.00;4978583;28;20109;-80
2023/04/25 09:01:52;;;;;;;6.30;3.10;;;;;;;30.30;34.26;97911.25;4961443;28;20469;-81
2023/04/25 09:04:18;;;;;;;8.95;3.53;;;;;;;30.42;34.67;97916.41;4961230;28;20124;-79
2023/04/25 09:06:43;;;;;;;9.07;3.30;;;;;;;30.48;34.95;97910.75;4977893;28;20026;-79
2023/04/25 09:09:10;;;;;;;9.98;3.70;;;;;;;30.48;33.99;97913.47;4958144;28;20135;-78
2023/04/25 09:11:36;;;;;;;12.38;3.70;;;;;;;30.55;32.41;97912.38;4976205;28;20069;-84
2023/04/25 09:14:14;;;;;;;7.60;3.85;;;;;;;30.53;32.96;97914.56;4942667;28;20069;-84
2023/04/25 09:17:04;;;;;;;6.85;3.63;;;;;;;30.45;32.40;97908.59;4958781;28;20109;-80
2023/04/25 09:19:35;;;;;;;9.60;4.03;;;;;;;30.46;31.48;97910.22;4900486;29;20064;-81
2023/04/25 09:22:02;;;;;;;10.98;3.90;;;;;;;30.40;32.61;97903.22;4885127;29;20037;-75
2023/04/25 09:24:43;;;;;;;9.88;3.70;;;;;;;30.31;32.59;97896.69;4884525;29;20412;-76
2023/04/25 09:27:10;;;;;;;6.93;3.10;;;;;;;30.26;32.79;97894.00;4885071;29;20036;-79
2023/04/25 09:29:40;;;;;;;6.77;3.10;;;;;;;30.13;32.72;97901.50;4868971;29;20032;-82
2023/04/25 09:32:22;;;;;;;6.95;3.10;;;;;;;30.12;32.69;97894.50;4869388;29;20272;-77
2023/04/25 09:34:54;;;;;;;4.35;3.00;;;;;;;30.04;32.66;97894.22;4869890;29;20440;-81
2023/04/25 09:37:26;;;;;;;8.75;3.05;;;;;;;29.95;32.60;97883.97;4885066;29;20054;-77
2023/04/25 09:39:56;;;;;;;7.32;2.97;;;;;;;29.76;32.67;97886.28;4869003;29;20124;-79
2023/04/25 09:42:26;;;;;;;6.50;2.72;;;;;;;29.77;33.14;97885.22;4900032;29;20040;-82
2023/04/25 09:44:55;;;;;;;5.95;2.60;;;;;;;29.64;33.00;97879.53;4899950;29;20078;-79
2023/04/25 09:47:23;;;;;;;5.10;2.83;;;;;;;29.58;33.34;97876.78;4883508;29;20108;-79
2023/04/25 09:49:49;;;;;;;6.65;2.50;;;;;;;29.45;33.08;97871.91;4884273;29;20047;-77
2023/04/25 09:52:16;;;;;;;4.32;2.20;;;;;;;29.49;32.93;97872.97;4899463;29;20044;-76
2023/04/25 09:54:42;;;;;;;4.07;1.88;;;;;;;29.59;32.14;97867.66;4884285;29;20086;-79
2023/04/25 09:57:19;;;;;;;4.13;2.38;;;;;;;29.57;32.40;97859.06;4912008;28;20038;-78
2023/04/25 09:59:53;;;;;;;4.07;2.00;;;;;;;29.62;31.82;97855.59;4941856;28;20089;-78
2023/04/25 10:02:22;;;;;;;4.10;2.10;;;;;;;29.58;31.54;97847.22;4957091;28;20047;-81
2023/04/25 10:04:52;;;;;;;4.80;2.17;;;;;;;29.53;31.74;97846.41;4957336;28;20035;-78
2023/04/25 10:07:18;;;;;;;3.65;1.60;;;;;;;29.37;31.67;97832.88;4975625;28;20035;-81
2023/04/25 10:09:45;;;;;;;3.22;1.63;;;;;;;29.31;31.31;97820.47;4976879;28;20026;-78
2023/04/25 10:12:11;;;;;;;3.80;1.87;;;;;;;29.25;31.37;97826.09;4976748;28;20037;-79
2023/04/25 10:14:36;;;;;;;4.85;1.98;;;;;;;29.14;31.77;97817.13;4976279;28;20281;-80
2023/04/25 10:17:02;;;;;;;4.05;1.70;;;;;;;29.14;31.57;97817.94;4944615;28;20022;-79
2023/04/25 10:19:27;;;;;;;4.05;1.65;;;;;;;29.11;31.08;97810.38;4944576;28;20038;-78
2023/04/25 10:21:58;;;;;;;4.22;1.67;;;;;;;29.09;31.58;97803.69;4944836;28;20058;-78
2023/04/25 10:24:23;;;;;;;3.47;1.70;;;;;;;28.91;31.86;97796.84;4994302;28;20043;-83
2023/04/25 10:26:49;;;;;;;5.07;1.65;;;;;;;28.94;31.25;97799.84;4944185;28;20030;-78
2023/04/25 10:29:24;;;;;;;5.47;1.75;;;;;;;29.02;31.26;97795.84;4960512;28;20164;-79
2023/04/25 10:31:50;;;;;;;2.85;1.63;;;;;;;29.02;31.37;97785.91;4961078;28;20037;-77
2023/04/25 10:34:17;;;;;;;5.07;1.98;;;;;;;29.05;31.37;97788.09;4960575;28;20026;-79
2023/04/25 10:36:42;;;;;;;4.65;1.80;;;;;;;29.24;31.29;97790.38;4959936;28;20049;-77
2023/04/25 10:39:11;;;;;;;8.00;1.60;;;;;;;29.16;31.49;97797.00;4943885;28;20038;-78
2023/04/25 10:41:47;;;;;;;3.90;1.83;;;;;;;29.35;30.98;97775.06;4960162;28;20026;-78
2023/04/25 10:44:13;;;;;;;3.08;1.88;;;;;;;29.56;30.17;97784.03;4976251;28;20113;-76
2023/04/25 10:46:39;;;;;;;3.53;1.67;;;;;;;29.66;30.50;97792.13;4943744;28;20149;-76
2023/04/25 10:49:04;;;;;;;7.60;2.20;;;;;;;29.62;29.92;97782.16;4943438;28;20076;-76
2023/04/25 10:51:35;;;;;;;7.30;2.20;;;;;;;29.70;29.65;97789.72;4943981;28;20073;-75
2023/04/25 10:54:04;;;;;;;5.88;2.08;;;;;;;29.61;29.62;97794.81;4975752;28;20569;-78
2023/04/25 10:56:34;;;;;;;3.75;1.90;;;;;;;29.54;29.77;97787.00;4960134;28;20030;-75
2023/04/25 10:59:16;;;;;;;5.97;1.75;;;;;;;29.30;30.41;97786.59;4943377;28;20057;-75
2023/04/25 11:01:46;;;;;;;3.63;1.80;;;;;;;29.03;30.57;97792.09;4944117;28;20145;-76
2023/04/25 11:04:25;;;;;;;3.25;1.80;;;;;;;28.79;31.12;97778.25;4959700;28;20034;-79
2023/04/25 11:07:05;;;;;;;4.97;1.95;;;;;;;28.38;31.50;97770.66;4974751;28;20034;-80
2023/04/25 11:09:33;;;;;;;4.38;1.70;;;;;;;28.05;31.90;97771.72;4975842;28;20494;-77
2023/04/25 11:11:58;;;;;;;6.28;1.65;;;;;;;27.69;32.33;97776.69;4960130;28;20034;-80
2023/04/25 11:14:24;;;;;;;2.85;1.40;;;;;;;27.33;32.84;97776.31;4959725;28;20040;-79
2023/04/25 11:16:55;;;;;;;2.67;1.42;;;;;;;26.99;33.25;97787.06;4959720;28;20126;-79
2023/04/25 11:19:21;;;;;;;4.95;1.55;;;;;;;26.72;33.48;97782.41;4975584;28;20473;-79
2023/04/25 11:21:52;;;;;;;4.43;1.80;;;;;;;26.61;33.69;97775.25;4959427;28;20113;-79
2023/04/25 11:24:17;;;;;;;4.47;1.40;;;;;;;26.62;33.91;97777.69;4944280;28;20057;-78
2023/04/25 11:26:43;;;;;;;3.50;1.35;;;;;;;26.63;34.27;97775.81;4943326;28;20490;-78
2023/04/25 11:29:09;;;;;;;1.98;1.30;;;;;;;26.76;34.05;97780.88;4943699;28;20030;-78